Time;durP1;ratioP1;P1;durP2;ratioP2;P2;SDS_P1;SDS_P2;PMS_P1;PMS_P2;Temp;Humidity;BMP_temperature;BMP_pressure;BME280_temperature;BME280_humidity;BME280_pressure;Samples;Min_cycle;Max_cycle;Signal;HPM_P1;HPM_P2
2023/03/19 00:03:04;;;;;;;17.03;9.70;;;;;6.00;96026.00;;;;8333438;28;20282;-72
2023/03/19 00:07:09;;;;;;;18.30;10.47;;;;;5.90;96019.00;;;;8333087;28;20504;-73
2023/03/19 00:11:14;;;;;;;19.83;9.70;;;;;5.90;96010.00;;;;8333084;28;20198;-73
2023/03/19 00:15:20;;;;;;;23.43;11.27;;;;;5.90;96015.00;;;;8332056;28;20220;-73
2023/03/19 00:19:24;;;;;;;24.43;11.33;;;;;5.90;96012.00;;;;8333430;28;20196;-73
2023/03/19 00:23:28;;;;;;;23.10;10.23;;;;;6.10;96020.00;;;;8332363;28;20200;-73
2023/03/19 00:27:31;;;;;;;24.90;11.70;;;;;6.10;96007.00;;;;8331644;28;20204;-73
2023/03/19 00:31:36;;;;;;;23.83;10.93;;;;;6.20;96010.00;;;;8332758;28;20255;-73
2023/03/19 00:35:42;;;;;;;24.00;10.27;;;;;6.20;96020.00;;;;8332435;28;20225;-73
2023/03/19 00:39:46;;;;;;;21.03;10.63;;;;;6.20;96018.00;;;;8331455;28;20246;-73
2023/03/19 00:43:53;;;;;;;16.20;9.90;;;;;6.20;96027.00;;;;8331756;28;20206;-73
2023/03/19 00:48:00;;;;;;;26.40;10.53;;;;;6.10;96018.00;;;;8332131;28;20200;-73
2023/03/19 00:52:03;;;;;;;18.77;9.97;;;;;6.00;96012.00;;;;8314455;28;20540;-73
2023/03/19 00:56:07;;;;;;;22.90;10.57;;;;;5.90;96009.00;;;;8332393;28;20290;-73
2023/03/19 01:00:14;;;;;;;20.40;10.17;;;;;5.90;96008.00;;;;8332661;28;20211;-73
2023/03/19 01:04:17;;;;;;;26.40;11.17;;;;;5.80;96004.00;;;;8331865;28;20294;-73
2023/03/19 01:08:27;;;;;;;20.73;10.70;;;;;5.70;96013.00;;;;8331947;28;20566;-73
2023/03/19 01:12:30;;;;;;;23.60;10.37;;;;;5.70;96011.00;;;;8331624;28;20200;-73
2023/03/19 01:16:38;;;;;;;30.00;10.97;;;;;5.80;96018.00;;;;8323300;28;20227;-73
2023/03/19 01:20:48;;;;;;;22.93;11.00;;;;;5.80;96019.00;;;;8330939;28;20185;-73
2023/03/19 01:24:54;;;;;;;22.40;11.33;;;;;5.80;96013.00;;;;8327436;28;20582;-73
2023/03/19 01:29:00;;;;;;;22.03;11.23;;;;;5.80;96010.00;;;;8329780;28;20268;-73
2023/03/19 01:33:04;;;;;;;30.77;11.03;;;;;5.70;96004.00;;;;8331409;28;20283;-73
2023/03/19 01:37:11;;;;;;;25.33;10.90;;;;;5.60;96007.00;;;;8329694;28;20221;-73
2023/03/19 01:41:17;;;;;;;26.43;10.67;;;;;5.60;96005.00;;;;8330914;28;20196;-72
2023/03/19 01:45:35;;;;;;;25.57;10.57;;;;;5.60;96009.00;;;;8330071;28;20200;-73
2023/03/19 01:49:39;;;;;;;22.57;11.13;;;;;5.60;96009.00;;;;8313423;28;20193;-73
2023/03/19 01:53:47;;;;;;;22.53;10.90;;;;;5.60;95994.00;;;;8329717;28;20202;-72
2023/03/19 01:57:50;;;;;;;23.13;10.93;;;;;5.50;95999.00;;;;8329813;28;20360;-73
2023/03/19 02:02:04;;;;;;;21.17;10.70;;;;;5.50;96002.00;;;;8330148;28;20224;-73
2023/03/19 02:06:08;;;;;;;20.90;9.87;;;;;5.40;96003.00;;;;8330032;28;20195;-73
2023/03/19 02:10:22;;;;;;;21.63;10.47;;;;;5.40;96002.00;;;;8331176;28;20609;-73
2023/03/19 02:14:30;;;;;;;21.73;10.87;;;;;5.30;96013.00;;;;8330096;28;20193;-73
2023/03/19 02:18:35;;;;;;;21.60;10.20;;;;;5.30;96016.00;;;;8330473;28;20229;-73
2023/03/19 02:22:46;;;;;;;21.80;11.30;;;;;5.20;96019.00;;;;8330797;28;20254;-73
2023/03/19 02:26:51;;;;;;;20.97;10.87;;;;;5.20;96018.00;;;;8329483;28;20642;-73
2023/03/19 02:30:55;;;;;;;21.00;10.87;;;;;5.10;96022.00;;;;8333910;28;20197;-73
2023/03/19 02:34:59;;;;;;;23.53;10.83;;;;;5.00;96019.00;;;;8336094;28;20589;-73
2023/03/19 02:39:04;;;;;;;21.73;10.23;;;;;4.80;96017.00;;;;8334770;28;20227;-74
2023/03/19 02:43:11;;;;;;;22.03;10.17;;;;;4.90;96019.00;;;;8335162;28;20516;-74
2023/03/19 02:47:17;;;;;;;26.63;12.50;;;;;4.90;96020.00;;;;8333911;28;20237;-73
2023/03/19 02:51:21;;;;;;;20.17;10.40;;;;;4.80;96011.00;;;;8335700;28;20229;-73
2023/03/19 02:55:24;;;;;;;25.17;11.97;;;;;4.80;96009.00;;;;8335822;28;20243;-73
2023/03/19 02:59:31;;;;;;;21.10;11.23;;;;;4.70;96006.00;;;;8335511;28;20612;-73
2023/03/19 03:03:34;;;;;;;26.47;10.87;;;;;4.80;96005.00;;;;8412661;23;20291;-76
2023/03/19 03:07:37;;;;;;;22.37;10.57;;;;;4.80;96014.00;;;;8452244;27;20224;-74
2023/03/19 03:11:41;;;;;;;29.33;11.00;;;;;4.80;96015.00;;;;8444210;27;20207;-74
2023/03/19 03:15:47;;;;;;;22.83;10.93;;;;;4.80;96024.00;;;;8440796;27;20203;-75
2023/03/19 03:19:50;;;;;;;20.00;10.27;;;;;4.90;96022.00;;;;8460281;27;20691;-76
2023/03/19 03:23:53;;;;;;;22.17;10.47;;;;;4.90;96027.00;;;;8456875;27;20312;-74
2023/03/19 03:27:57;;;;;;;27.07;10.43;;;;;4.90;96029.00;;;;8446414;27;20646;-75
2023/03/19 03:32:01;;;;;;;20.30;10.10;;;;;5.00;96038.00;;;;8439802;27;20192;-75
2023/03/19 03:36:05;;;;;;;22.60;10.63;;;;;5.00;96050.00;;;;8445790;27;20258;-77
2023/03/19 03:40:10;;;;;;;23.20;10.93;;;;;5.00;96061.00;;;;8430296;28;20253;-74
2023/03/19 03:44:13;;;;;;;20.73;10.13;;;;;5.00;96059.00;;;;8430581;27;20195;-74
2023/03/19 03:48:17;;;;;;;24.27;10.63;;;;;5.10;96065.00;;;;8444383;27;20202;-75
2023/03/19 03:52:22;;;;;;;29.47;11.77;;;;;5.10;96060.00;;;;8434035;27;20808;-76
2023/03/19 03:56:27;;;;;;;21.73;10.13;;;;;5.10;96059.00;;;;8440639;27;20217;-75
2023/03/19 04:00:30;;;;;;;24.53;11.60;;;;;5.00;96060.00;;;;8446330;27;20197;-77
2023/03/19 04:04:38;;;;;;;24.37;10.73;;;;;5.00;96056.00;;;;8439970;28;20289;-74
2023/03/19 04:08:44;;;;;;;20.57;10.47;;;;;5.00;96056.00;;;;8433622;28;20211;-75
2023/03/19 04:12:49;;;;;;;21.60;11.20;;;;;5.10;96057.00;;;;8420072;28;20291;-75
2023/03/19 04:16:52;;;;;;;25.00;10.77;;;;;5.20;96053.00;;;;8419326;28;20272;-74
2023/03/19 04:21:02;;;;;;;22.23;11.00;;;;;5.20;96067.00;;;;8430403;28;20695;-74
2023/03/19 04:25:11;;;;;;;25.40;11.57;;;;;5.30;96053.00;;;;8420022;28;20716;-74
2023/03/19 04:29:18;;;;;;;21.87;11.90;;;;;5.30;96060.00;;;;8424817;28;20234;-74
2023/03/19 04:33:24;;;;;;;26.30;11.93;;;;;5.30;96060.00;;;;8418595;28;20203;-73
2023/03/19 04:37:29;;;;;;;19.67;10.13;;;;;5.40;96051.00;;;;8418167;28;20219;-75
2023/03/19 04:41:37;;;;;;;22.13;11.30;;;;;5.40;96052.00;;;;8429539;28;20203;-74
2023/03/19 04:45:41;;;;;;;23.50;10.47;;;;;5.40;96064.00;;;;8422187;28;20296;-74
2023/03/19 04:49:45;;;;;;;22.40;10.57;;;;;5.40;96064.00;;;;8427590;28;20202;-75
2023/03/19 04:53:50;;;;;;;21.97;10.40;;;;;5.50;96058.00;;;;8426825;28;20231;-73
2023/03/19 04:57:53;;;;;;;23.77;10.57;;;;;5.60;96067.00;;;;8432218;28;20233;-72
2023/03/19 05:01:58;;;;;;;53.10;42.30;;;;;5.60;96072.00;;;;8444363;28;20287;-72
2023/03/19 05:06:02;;;;;;;20.93;10.50;;;;;5.60;96078.00;;;;8432174;28;20261;-74
2023/03/19 05:10:07;;;;;;;21.37;9.53;;;;;5.50;96074.00;;;;8424996;28;20190;-72
2023/03/19 05:14:12;;;;;;;18.70;9.87;;;;;5.50;96076.00;;;;8434406;28;20188;-72
2023/03/19 05:18:15;;;;;;;17.77;9.20;;;;;5.60;96083.00;;;;8426429;28;20252;-73
2023/03/19 05:22:19;;;;;;;22.60;10.33;;;;;5.70;96090.00;;;;8422600;28;20242;-72
2023/03/19 05:26:24;;;;;;;21.77;10.03;;;;;5.80;96085.00;;;;8421781;28;20248;-73
2023/03/19 05:30:30;;;;;;;21.47;10.53;;;;;5.80;96088.00;;;;8420773;28;20280;-74
2023/03/19 05:34:38;;;;;;;21.93;11.03;;;;;5.90;96094.00;;;;8434650;28;20194;-72
2023/03/19 05:38:50;;;;;;;19.83;10.17;;;;;6.10;96102.00;;;;8432657;28;20580;-73
2023/03/19 05:42:54;;;;;;;19.77;10.47;;;;;6.20;96108.00;;;;8431876;28;20203;-72
2023/03/19 05:46:59;;;;;;;20.90;10.00;;;;;6.40;96108.00;;;;8429568;28;20194;-72
2023/03/19 05:51:06;;;;;;;19.90;9.83;;;;;6.50;96110.00;;;;8426442;28;20202;-71
2023/03/19 05:55:09;;;;;;;21.40;10.63;;;;;6.60;96111.00;;;;8440072;28;20248;-71
2023/03/19 05:59:27;;;;;;;21.33;11.70;;;;;6.70;96116.00;;;;8432781;28;20226;-71
2023/03/19 06:03:33;;;;;;;26.37;12.23;;;;;6.80;96117.00;;;;8438164;28;20288;-71
2023/03/19 06:07:47;;;;;;;20.20;10.90;;;;;6.90;96119.00;;;;8429200;28;20225;-72
2023/03/19 06:11:50;;;;;;;22.00;10.50;;;;;7.00;96141.00;;;;8433815;28;20649;-70
2023/03/19 06:15:58;;;;;;;17.60;9.30;;;;;7.00;96145.00;;;;8444158;28;20652;-72
2023/03/19 06:20:01;;;;;;;19.33;8.90;;;;;7.10;96157.00;;;;8441722;28;20231;-71
2023/03/19 06:24:06;;;;;;;16.87;8.63;;;;;7.10;96155.00;;;;8442209;28;20204;-72
2023/03/19 06:28:10;;;;;;;16.17;8.67;;;;;7.10;96162.00;;;;8445356;28;20198;-72
2023/03/19 06:32:15;;;;;;;17.37;9.73;;;;;7.00;96150.00;;;;8440953;28;20198;-72
2023/03/19 06:36:18;;;;;;;24.30;9.90;;;;;7.10;96162.00;;;;8439763;28;21755;-72
2023/03/19 06:40:22;;;;;;;19.50;10.40;;;;;7.10;96172.00;;;;8437394;28;20226;-74
2023/03/19 06:44:26;;;;;;;18.63;9.30;;;;;7.20;96174.00;;;;8432622;28;20199;-74
2023/03/19 06:48:31;;;;;;;17.00;9.20;;;;;7.20;96173.00;;;;8445916;28;20226;-77
2023/03/19 06:52:35;;;;;;;19.50;8.87;;;;;7.30;96182.00;;;;8429963;28;20252;-73
2023/03/19 06:56:38;;;;;;;22.97;12.43;;;;;7.40;96193.00;;;;8434906;28;20677;-71
2023/03/19 07:00:41;;;;;;;20.80;12.00;;;;;7.40;96188.00;;;;8443864;28;20798;-70
2023/03/19 07:04:49;;;;;;;20.47;9.20;;;;;7.40;96200.00;;;;8438269;28;20306;-71
2023/03/19 07:08:55;;;;;;;18.83;9.60;;;;;7.40;96197.00;;;;8436979;28;20202;-71
2023/03/19 07:13:00;;;;;;;17.77;8.73;;;;;7.40;96203.00;;;;8438442;28;20206;-74
2023/03/19 07:17:03;;;;;;;18.00;9.70;;;;;7.50;96207.00;;;;8437019;28;20202;-72
2023/03/19 07:21:10;;;;;;;42.90;17.13;;;;;7.70;96201.00;;;;8441396;28;20249;-72
2023/03/19 07:25:13;;;;;;;30.87;16.77;;;;;8.10;96217.00;;;;8428532;28;21002;-72
2023/03/19 07:29:19;;;;;;;23.40;11.07;;;;;8.20;96219.00;;;;8428485;28;20560;-73
2023/03/19 07:33:24;;;;;;;32.57;13.93;;;;;8.30;96221.00;;;;8425843;28;20192;-77
2023/03/19 07:37:29;;;;;;;30.93;13.23;;;;;8.50;96218.00;;;;8429951;28;20198;-74
2023/03/19 07:41:34;;;;;;;26.23;13.00;;;;;8.90;96220.00;;;;8439618;27;20247;-74
2023/03/19 07:45:37;;;;;;;21.67;11.03;;;;;9.40;96233.00;;;;8435971;28;20705;-77
2023/03/19 07:49:40;;;;;;;19.20;9.03;;;;;9.80;96240.00;;;;8436848;28;20217;-75
2023/03/19 07:53:45;;;;;;;18.87;8.50;;;;;10.20;96234.00;;;;8435711;27;20194;-75
2023/03/19 07:57:50;;;;;;;19.23;8.97;;;;;10.40;96248.00;;;;8428595;28;20632;-74
2023/03/19 08:01:53;;;;;;;16.50;8.15;;;;;10.70;96248.00;;;;8432036;28;20227;-75
2023/03/19 08:05:57;;;;;;;12.83;7.77;;;;;11.00;96251.00;;;;8432891;28;20205;-74
2023/03/19 08:10:02;;;;;;;13.70;7.13;;;;;11.30;96244.00;;;;8437246;28;20202;-74
2023/03/19 08:14:12;;;;;;;12.98;7.75;;;;;11.60;96241.00;;;;8437945;28;20237;-74
2023/03/19 08:18:15;;;;;;;12.77;6.00;;;;;11.80;96238.00;;;;8434607;28;20833;-74
2023/03/19 08:22:18;;;;;;;10.65;5.93;;;;;12.00;96245.00;;;;8430180;28;20353;-74
2023/03/19 08:26:27;;;;;;;9.60;5.82;;;;;12.10;96246.00;;;;8434804;28;20551;-73
2023/03/19 08:30:31;;;;;;;10.13;5.93;;;;;12.40;96244.00;;;;8429284;28;20942;-73
2023/03/19 08:34:35;;;;;;;9.55;4.90;;;;;12.80;96256.00;;;;8429218;28;20195;-72
2023/03/19 08:38:39;;;;;;;11.32;5.50;;;;;13.00;96258.00;;;;8427508;28;20221;-73
2023/03/19 08:42:48;;;;;;;9.35;5.53;;;;;13.00;96257.00;;;;8433249;28;20193;-73
2023/03/19 08:46:51;;;;;;;14.15;4.72;;;;;13.00;96260.00;;;;8432063;28;20206;-72
2023/03/19 08:50:56;;;;;;;5.85;4.38;;;;;13.00;96259.00;;;;8433751;27;20199;-73
2023/03/19 08:54:59;;;;;;;7.72;4.18;;;;;13.10;96260.00;;;;8437161;27;20204;-73
2023/03/19 08:59:05;;;;;;;7.40;4.30;;;;;13.20;96250.00;;;;8426069;28;20866;-73
2023/03/19 09:03:08;;;;;;;5.97;3.63;;;;;13.10;96255.00;;;;8424936;28;20286;-73
2023/03/19 09:07:12;;;;;;;6.07;3.72;;;;;13.20;96246.00;;;;8431788;28;20209;-74
2023/03/19 09:11:16;;;;;;;7.03;3.33;;;;;13.30;96265.00;;;;8432418;28;20234;-75
2023/03/19 09:15:21;;;;;;;7.15;3.55;;;;;13.50;96268.00;;;;8430137;28;20210;-74
2023/03/19 09:19:24;;;;;;;4.75;3.42;;;;;13.60;96283.00;;;;8433897;28;20223;-75
2023/03/19 09:23:31;;;;;;;4.85;3.20;;;;;13.90;96282.00;;;;8434041;28;20244;-73
2023/03/19 09:27:34;;;;;;;5.22;3.83;;;;;14.10;96289.00;;;;8429905;28;20206;-72
2023/03/19 09:31:39;;;;;;;7.72;3.38;;;;;14.20;96299.00;;;;8435335;28;20198;-72
2023/03/19 09:35:44;;;;;;;8.73;3.55;;;;;14.20;96291.00;;;;8413810;28;20930;-73
2023/03/19 09:39:47;;;;;;;3.58;3.10;;;;;14.30;96301.00;;;;8425666;28;20647;-73
2023/03/19 09:44:02;;;;;;;3.85;3.22;;;;;14.40;96300.00;;;;8432256;28;20596;-73
2023/03/19 09:48:18;;;;;;;6.35;3.30;;;;;14.60;96302.00;;;;8417188;28;20206;-73
2023/03/19 09:52:34;;;;;;;5.97;3.38;;;;;14.60;96302.00;;;;8430579;28;20242;-73
2023/03/19 09:56:37;;;;;;;7.00;3.53;;;;;14.70;96306.00;;;;8422996;28;20194;-73
2023/03/19 10:00:41;;;;;;;4.75;3.13;;;;;14.70;96309.00;;;;8435924;28;20526;-83
2023/03/19 10:05:04;;;;;;;4.10;2.67;;;;;14.90;96319.00;;;;8430445;28;20787;-82
2023/03/19 10:09:41;;;;;;;3.45;2.88;;;;;15.10;96331.00;;;;8438448;28;20206;-83
2023/03/19 10:14:00;;;;;;;2.45;2.08;;;;;15.10;96316.00;;;;8436296;28;20252;-81
2023/03/19 10:18:08;;;;;;;3.35;2.83;;;;;15.10;96321.00;;;;8441081;28;20271;-83
2023/03/19 10:22:18;;;;;;;3.10;2.75;;;;;15.30;96313.00;;;;8428416;28;20231;-82
2023/03/19 10:26:31;;;;;;;3.28;2.70;;;;;15.50;96335.00;;;;8428776;28;20288;-82
2023/03/19 10:30:35;;;;;;;2.67;2.30;;;;;15.50;96332.00;;;;8432564;28;20583;-84
2023/03/19 10:34:42;;;;;;;3.35;2.70;;;;;15.50;96336.00;;;;8427612;28;20199;-83
2023/03/19 10:38:53;;;;;;;3.30;2.78;;;;;15.60;96316.00;;;;8441562;28;20256;-83
2023/03/19 10:43:09;;;;;;;2.50;2.25;;;;;15.70;96324.00;;;;8434234;28;20200;-83
2023/03/19 10:47:14;;;;;;;3.72;2.33;;;;;15.70;96321.00;;;;8435193;28;20195;-84
2023/03/19 10:51:24;;;;;;;2.72;2.45;;;;;15.70;96313.00;;;;8428432;28;20249;-83
2023/03/19 10:55:37;;;;;;;3.70;2.35;;;;;15.70;96325.00;;;;8437159;28;20245;-83
2023/03/19 10:59:40;;;;;;;2.33;2.13;;;;;15.80;96312.00;;;;8439632;28;20683;-83
2023/03/19 11:03:51;;;;;;;2.63;2.42;;;;;15.90;96315.00;;;;8425303;28;20725;-83
2023/03/19 11:08:00;;;;;;;3.47;2.03;;;;;15.90;96306.00;;;;8436756;28;20370;-84
2023/03/19 11:12:18;;;;;;;4.95;2.35;;;;;16.00;96312.00;;;;8434284;28;20192;-84
2023/03/19 11:16:23;;;;;;;3.05;2.08;;;;;16.10;96314.00;;;;8440674;28;20195;-83
2023/03/19 11:20:32;;;;;;;2.30;2.10;;;;;16.10;96310.00;;;;8435468;28;20253;-83
2023/03/19 11:24:40;;;;;;;4.90;2.70;;;;;16.20;96317.00;;;;8438696;28;20199;-83
2023/03/19 11:28:44;;;;;;;3.85;2.17;;;;;16.50;96308.00;;;;8430045;28;20195;-83
2023/03/19 11:33:27;;;;;;;5.40;2.38;;;;;16.20;96319.00;;;;8425021;28;20203;-82
2023/03/19 11:37:40;;;;;;;2.50;2.10;;;;;15.90;96311.00;;;;8392711;28;20217;-82
2023/03/19 11:41:58;;;;;;;4.78;2.17;;;;;15.90;96311.00;;;;8422686;28;20478;-82
2023/03/19 11:46:12;;;;;;;2.50;2.30;;;;;15.90;96313.00;;;;8440833;28;20230;-80
2023/03/19 11:50:26;;;;;;;2.30;2.10;;;;;16.10;96304.00;;;;8434698;28;20248;-80
2023/03/19 11:54:40;;;;;;;2.33;2.13;;;;;16.20;96315.00;;;;8440443;28;20257;-81
2023/03/19 11:59:07;;;;;;;6.78;2.33;;;;;16.10;96308.00;;;;8437179;28;20201;-81
2023/03/19 12:03:39;;;;;;;2.60;1.98;;;;;16.00;96295.00;;;;8429573;28;20284;-83
2023/03/19 12:07:49;;;;;;;3.47;2.30;;;;;15.80;96294.00;;;;8431323;28;20199;-84
2023/03/19 12:11:58;;;;;;;2.83;1.85;;;;;15.80;96298.00;;;;8436838;28;20210;-84
2023/03/19 12:16:12;;;;;;;4.00;2.30;;;;;15.80;96296.00;;;;8436171;28;20279;-84
2023/03/19 12:20:38;;;;;;;3.55;2.30;;;;;15.90;96286.00;;;;8429086;28;20219;-85
2023/03/19 12:25:01;;;;;;;2.53;2.08;;;;;16.20;96298.00;;;;8433151;28;20219;-86
2023/03/19 12:29:17;;;;;;;2.25;2.00;;;;;16.70;96293.00;;;;8431990;28;20191;-87
2023/03/19 12:33:36;;;;;;;2.33;2.10;;;;;17.30;96286.00;;;;8431700;28;20207;-86
2023/03/19 12:37:53;;;;;;;3.50;1.80;;;;;17.50;96277.00;;;;8432775;28;20191;-87
2023/03/19 12:42:00;;;;;;;3.22;2.20;;;;;17.60;96277.00;;;;8430619;28;20207;-86
2023/03/19 12:46:13;;;;;;;2.20;2.10;;;;;17.80;96278.00;;;;8432186;28;20229;-83
2023/03/19 12:50:18;;;;;;;2.42;2.00;;;;;18.00;96274.00;;;;8432361;28;20180;-81
2023/03/19 12:54:27;;;;;;;4.00;2.00;;;;;18.50;96270.00;;;;8432081;28;20195;-81
2023/03/19 12:58:42;;;;;;;3.42;2.08;;;;;18.90;96261.00;;;;8431889;28;20199;-82
2023/03/19 13:02:56;;;;;;;2.03;1.80;;;;;19.00;96262.00;;;;8431947;28;20276;-82
2023/03/19 13:07:05;;;;;;;2.15;1.90;;;;;19.20;96255.00;;;;8430550;28;20240;-82
2023/03/19 13:11:13;;;;;;;2.33;2.10;;;;;19.10;96255.00;;;;8430991;28;20241;-82
2023/03/19 13:15:25;;;;;;;1.98;1.85;;;;;19.10;96253.00;;;;8431427;28;20587;-82
2023/03/19 13:19:40;;;;;;;2.17;2.00;;;;;19.10;96256.00;;;;8431242;28;20195;-82
2023/03/19 13:23:49;;;;;;;3.28;1.90;;;;;19.40;96253.00;;;;8431131;28;20192;-82
2023/03/19 13:27:56;;;;;;;2.00;1.90;;;;;19.70;96258.00;;;;8430697;28;20195;-82
2023/03/19 13:32:10;;;;;;;2.90;1.90;;;;;19.90;96254.00;;;;8431724;28;20224;-82
2023/03/19 13:36:16;;;;;;;2.97;1.77;;;;;19.80;96249.00;;;;8430682;28;20210;-79
2023/03/19 13:40:47;;;;;;;2.20;2.00;;;;;19.90;96248.00;;;;8425676;28;20219;-77
2023/03/19 13:45:00;;;;;;;1.90;1.70;;;;;19.90;96243.00;;;;8427454;28;20243;-78
2023/03/19 13:49:34;;;;;;;4.07;2.45;;;;;20.00;96236.00;;;;8430734;28;20257;-78
2023/03/19 13:53:52;;;;;;;3.17;2.20;;;;;20.30;96233.00;;;;8429889;28;20244;-79
2023/03/19 13:58:10;;;;;;;2.00;1.90;;;;;20.60;96234.00;;;;8430249;28;20257;-79
2023/03/19 14:02:49;;;;;;;2.03;1.92;;;;;20.40;96223.00;;;;8427667;28;20237;-77
2023/03/19 14:06:58;;;;;;;2.28;1.92;;;;;20.30;96221.00;;;;8431305;28;20240;-78
2023/03/19 14:11:04;;;;;;;2.10;1.98;;;;;20.20;96234.00;;;;8430331;28;20700;-77
2023/03/19 14:15:19;;;;;;;2.85;2.30;;;;;19.90;96227.00;;;;8429039;28;20200;-77
2023/03/19 14:19:29;;;;;;;3.35;2.75;;;;;19.80;96231.00;;;;8429482;28;20196;-77
2023/03/19 14:23:40;;;;;;;4.43;2.10;;;;;19.80;96218.00;;;;8428607;28;20223;-78
2023/03/19 14:27:58;;;;;;;1.98;1.88;;;;;19.70;96222.00;;;;8434034;28;20236;-77
2023/03/19 14:32:08;;;;;;;3.65;2.10;;;;;19.50;96218.00;;;;8436528;28;20180;-76
2023/03/19 14:36:18;;;;;;;3.28;2.00;;;;;19.40;96215.00;;;;8435806;28;20585;-76
2023/03/19 14:40:27;;;;;;;2.25;2.05;;;;;19.30;96214.00;;;;8434871;28;20179;-77
2023/03/19 14:45:06;;;;;;;2.35;2.15;;;;;19.10;96211.00;;;;8436775;28;20203;-77
2023/03/19 14:49:51;;;;;;;2.45;2.22;;;;;19.10;96211.00;;;;8435427;28;20621;-77
2023/03/19 14:54:02;;;;;;;1.88;1.77;;;;;19.10;96216.00;;;;8436399;28;20234;-78
2023/03/19 14:58:12;;;;;;;2.00;1.90;;;;;19.00;96212.00;;;;8435754;28;20244;-76
2023/03/19 15:02:30;;;;;;;5.90;2.30;;;;;19.00;96220.00;;;;8434423;28;20231;-82
2023/03/19 15:06:38;;;;;;;2.97;2.25;;;;;18.90;96214.00;;;;8434793;28;20241;-84
2023/03/19 15:10:55;;;;;;;1.98;1.88;;;;;18.50;96217.00;;;;8433953;28;20199;-84
2023/03/19 15:15:31;;;;;;;2.88;2.10;;;;;18.20;96210.00;;;;8434882;28;20226;-80
2023/03/19 15:19:42;;;;;;;3.92;2.10;;;;;18.00;96208.00;;;;8434093;28;20187;-81
2023/03/19 15:23:47;;;;;;;2.13;2.00;;;;;17.80;96207.00;;;;8433098;28;20219;-79
2023/03/19 15:28:08;;;;;;;3.47;2.05;;;;;17.50;96210.00;;;;8434067;28;20192;-79
2023/03/19 15:32:13;;;;;;;3.05;2.00;;;;;17.40;96204.00;;;;8437935;28;20191;-84
2023/03/19 15:36:25;;;;;;;2.35;2.00;;;;;17.50;96198.00;;;;8434389;28;20191;-86
2023/03/19 15:40:41;;;;;;;3.00;2.10;;;;;17.60;96207.00;;;;8433911;28;20256;-84
2023/03/19 15:44:49;;;;;;;7.20;2.15;;;;;17.80;96205.00;;;;8433874;28;20633;-83
2023/03/19 15:48:57;;;;;;;3.53;2.00;;;;;17.90;96205.00;;;;8435090;28;20187;-83
2023/03/19 15:53:04;;;;;;;1.85;1.60;;;;;18.10;96208.00;;;;8433244;28;20582;-82
2023/03/19 15:57:09;;;;;;;2.13;1.88;;;;;18.40;96209.00;;;;8433240;28;20199;-84
2023/03/19 16:01:18;;;;;;;2.33;2.00;;;;;18.60;96207.00;;;;8433901;28;20728;-84
2023/03/19 16:05:25;;;;;;;1.98;1.88;;;;;18.60;96216.00;;;;8432432;28;20261;-83
2023/03/19 16:09:34;;;;;;;2.03;1.92;;;;;18.50;96210.00;;;;8432060;28;20199;-83
2023/03/19 16:13:40;;;;;;;2.33;2.20;;;;;18.50;96213.00;;;;8432826;28;20548;-83
2023/03/19 16:17:48;;;;;;;4.53;2.47;;;;;18.50;96205.00;;;;8431963;28;20195;-84
2023/03/19 16:21:52;;;;;;;1.92;1.80;;;;;18.40;96208.00;;;;8432715;28;20298;-83
2023/03/19 16:26:14;;;;;;;2.10;1.90;;;;;18.20;96217.00;;;;8432668;28;20192;-83
2023/03/19 16:30:21;;;;;;;4.82;2.03;;;;;18.00;96215.00;;;;8433430;28;20277;-83
2023/03/19 16:34:35;;;;;;;2.28;2.00;;;;;17.80;96223.00;;;;8433365;28;20237;-83
2023/03/19 16:38:44;;;;;;;3.72;2.20;;;;;17.50;96221.00;;;;8432758;28;20187;-85
2023/03/19 16:42:51;;;;;;;3.78;2.00;;;;;17.30;96236.00;;;;8431869;28;20687;-85
2023/03/19 16:46:57;;;;;;;3.17;2.10;;;;;17.10;96230.00;;;;8431633;28;20283;-90
2023/03/19 16:51:02;;;;;;;3.50;2.40;;;;;16.70;96236.00;;;;8430539;28;20522;-86
2023/03/19 16:55:19;;;;;;;3.40;2.10;;;;;16.50;96233.00;;;;8432435;28;20199;-86
2023/03/19 16:59:28;;;;;;;4.07;1.88;;;;;16.10;96237.00;;;;8431219;28;20199;-87
2023/03/19 17:03:32;;;;;;;1.83;1.75;;;;;15.70;96241.00;;;;8431382;28;20235;-87
2023/03/19 17:07:41;;;;;;;4.28;2.00;;;;;15.20;96248.00;;;;8431698;28;20198;-90
2023/03/19 17:11:48;;;;;;;3.03;2.25;;;;;14.70;96246.00;;;;8430993;28;20179;-82
2023/03/19 17:15:54;;;;;;;3.22;2.28;;;;;14.20;96255.00;;;;8431955;28;20195;-82
2023/03/19 17:19:58;;;;;;;2.20;2.10;;;;;13.80;96248.00;;;;8431657;28;20180;-82
2023/03/19 17:24:20;;;;;;;5.22;2.30;;;;;13.30;96266.00;;;;8432025;28;21181;-83
2023/03/19 17:28:26;;;;;;;4.70;2.30;;;;;12.80;96257.00;;;;8430725;28;20194;-84
2023/03/19 17:32:30;;;;;;;2.33;2.20;;;;;12.30;96259.00;;;;8431585;28;20198;-83
2023/03/19 17:36:36;;;;;;;3.10;2.83;;;;;12.00;96260.00;;;;8431000;28;20243;-89
2023/03/19 17:40:41;;;;;;;4.10;2.45;;;;;11.70;96260.00;;;;8433291;28;20687;-86
2023/03/19 17:44:46;;;;;;;3.88;2.45;;;;;11.50;96268.00;;;;8430910;28;20217;-87
2023/03/19 17:48:52;;;;;;;2.80;2.60;;;;;11.20;96267.00;;;;8428219;28;20201;-88
2023/03/19 17:52:56;;;;;;;5.72;3.38;;;;;11.00;96274.00;;;;8429504;28;20250;-87
2023/03/19 17:57:01;;;;;;;6.40;3.75;;;;;10.80;96273.00;;;;8430173;28;20245;-86
2023/03/19 18:01:10;;;;;;;6.93;3.80;;;;;10.60;96275.00;;;;8434143;28;20202;-81
2023/03/19 18:05:20;;;;;;;11.32;5.15;;;;;10.40;96280.00;;;;8433837;28;20215;-80
2023/03/19 18:09:28;;;;;;;8.48;4.90;;;;;10.30;96286.00;;;;8432824;28;20180;-79
2023/03/19 18:13:38;;;;;;;9.00;5.15;;;;;10.20;96285.00;;;;8436594;28;20241;-81
2023/03/19 18:17:49;;;;;;;9.48;5.07;;;;;10.10;96287.00;;;;8435637;28;20196;-79
2023/03/19 18:21:57;;;;;;;11.13;5.50;;;;;10.00;96291.00;;;;8436850;28;20205;-79
2023/03/19 18:26:04;;;;;;;11.82;4.85;;;;;9.80;96289.00;;;;8435702;28;20528;-78
2023/03/19 18:30:11;;;;;;;7.67;3.93;;;;;9.70;96291.00;;;;8435827;28;20200;-80
2023/03/19 18:34:17;;;;;;;10.75;4.97;;;;;9.60;96286.00;;;;8436277;28;20638;-78
2023/03/19 18:38:22;;;;;;;7.40;3.87;;;;;9.50;96284.00;;;;8435994;28;20199;-79
2023/03/19 18:42:25;;;;;;;4.75;3.85;;;;;9.30;96293.00;;;;8435334;28;20223;-79
2023/03/19 18:46:33;;;;;;;6.83;3.40;;;;;9.20;96297.00;;;;8436613;28;20690;-78
2023/03/19 18:50:36;;;;;;;8.20;4.15;;;;;9.10;96307.00;;;;8435022;28;20211;-79
2023/03/19 18:54:42;;;;;;;5.57;4.33;;;;;8.90;96307.00;;;;8435395;28;20237;-78
2023/03/19 18:58:45;;;;;;;10.33;6.20;;;;;8.80;96315.00;;;;8434866;28;20188;-78
2023/03/19 19:02:53;;;;;;;8.17;4.63;;;;;8.60;96322.00;;;;8434114;28;20607;-78
2023/03/19 19:06:56;;;;;;;10.37;6.77;;;;;8.50;96315.00;;;;8434810;28;20252;-77
2023/03/19 19:11:04;;;;;;;9.95;6.90;;;;;8.40;96318.00;;;;8433819;28;20299;-77
2023/03/19 19:15:16;;;;;;;9.20;6.67;;;;;8.50;96326.00;;;;8434435;28;20200;-77
2023/03/19 19:19:37;;;;;;;13.83;6.73;;;;;8.50;96327.00;;;;8435273;28;20207;-79
2023/03/19 19:23:46;;;;;;;19.83;8.17;;;;;8.50;96325.00;;;;8433621;28;20691;-78
2023/03/19 19:27:56;;;;;;;12.90;7.40;;;;;8.50;96332.00;;;;8434551;28;20694;-79
2023/03/19 19:31:59;;;;;;;16.40;9.80;;;;;8.30;96339.00;;;;8433342;28;20195;-78
2023/03/19 19:36:04;;;;;;;13.57;7.77;;;;;8.20;96340.00;;;;8433038;28;20192;-78
2023/03/19 19:40:12;;;;;;;4.90;4.40;;;;;8.10;96343.00;;;;8434207;28;20209;-78
2023/03/19 19:44:20;;;;;;;10.67;6.67;;;;;8.10;96361.00;;;;8433369;28;20223;-78
2023/03/19 19:48:25;;;;;;;8.30;5.97;;;;;8.10;96360.00;;;;8434108;28;20616;-77
2023/03/19 19:52:29;;;;;;;15.90;8.63;;;;;8.10;96361.00;;;;8433452;28;20209;-79
2023/03/19 19:56:34;;;;;;;12.90;7.37;;;;;8.10;96355.00;;;;8432346;28;20191;-78
2023/03/19 20:00:47;;;;;;;23.40;9.20;;;;;8.00;96357.00;;;;8432343;28;20640;-79
2023/03/19 20:05:06;;;;;;;13.80;6.00;;;;;8.00;96377.00;;;;8432474;28;20219;-82
2023/03/19 20:09:10;;;;;;;10.20;4.10;;;;;8.20;96387.00;;;;8432899;28;20187;-82
2023/03/19 20:13:21;;;;;;;10.03;6.37;;;;;8.40;96382.00;;;;8431651;28;20195;-81
2023/03/19 20:17:27;;;;;;;7.83;5.60;;;;;8.60;96387.00;;;;8433253;28;20632;-83
2023/03/19 20:21:32;;;;;;;10.03;5.67;;;;;8.70;96384.00;;;;8432936;28;20612;-82
2023/03/19 20:25:43;;;;;;;10.47;5.20;;;;;8.80;96384.00;;;;8431022;28;20218;-81
2023/03/19 20:29:52;;;;;;;10.03;6.23;;;;;8.80;96384.00;;;;8431838;28;20233;-82
2023/03/19 20:33:58;;;;;;;11.87;6.37;;;;;8.90;96382.00;;;;8432327;28;20195;-82
2023/03/19 20:38:02;;;;;;;12.80;7.47;;;;;9.10;96382.00;;;;8430096;28;20236;-84